sensor_id;sensor_type;location;lat;lon;timestamp;P1;durP1;ratioP1;P2;durP2;ratioP2
74543;SDS011;63016;55.030;38.710;2023-02-15T00:01:38;3.08;;;0.70;;
74543;SDS011;63016;55.030;38.710;2023-02-15T00:04:05;3.92;;;0.52;;
74543;SDS011;63016;55.030;38.710;2023-02-15T00:06:32;5.68;;;0.70;;
74543;SDS011;63016;55.030;38.710;2023-02-15T00:08:58;3.63;;;0.50;;
74543;SDS011;63016;55.030;38.710;2023-02-15T00:11:24;2.08;;;0.50;;
74543;SDS011;63016;55.030;38.710;2023-02-15T00:14:15;1.55;;;0.50;;
74543;SDS011;63016;55.030;38.710;2023-02-15T00:16:42;2.47;;;0.60;;
74543;SDS011;63016;55.030;38.710;2023-02-15T00:19:09;2.40;;;0.63;;
74543;SDS011;63016;55.030;38.710;2023-02-15T00:21:37;3.20;;;0.60;;
74543;SDS011;63016;55.030;38.710;2023-02-15T00:24:04;1.05;;;0.43;;
74543;SDS011;63016;55.030;38.710;2023-02-15T00:26:31;3.03;;;0.45;;
74543;SDS011;63016;55.030;38.710;2023-02-15T00:28:57;1.77;;;0.40;;
74543;SDS011;63016;55.030;38.710;2023-02-15T00:31:24;1.42;;;0.45;;
74543;SDS011;63016;55.030;38.710;2023-02-15T00:33:50;4.40;;;0.50;;
74543;SDS011;63016;55.030;38.710;2023-02-15T00:36:16;3.40;;;0.38;;
74543;SDS011;63016;55.030;38.710;2023-02-15T00:38:41;1.55;;;0.50;;
74543;SDS011;63016;55.030;38.710;2023-02-15T00:41:07;2.33;;;0.40;;
74543;SDS011;63016;55.030;38.710;2023-02-15T00:43:34;2.83;;;0.70;;
74543;SDS011;63016;55.030;38.710;2023-02-15T00:46:01;1.00;;;0.40;;
74543;SDS011;63016;55.030;38.710;2023-02-15T00:48:27;1.92;;;0.50;;
74543;SDS011;63016;55.030;38.710;2023-02-15T00:50:55;1.10;;;0.40;;
74543;SDS011;63016;55.030;38.710;2023-02-15T00:53:22;1.08;;;0.50;;
74543;SDS011;63016;55.030;38.710;2023-02-15T00:55:48;1.85;;;0.50;;
74543;SDS011;63016;55.030;38.710;2023-02-15T00:58:14;3.40;;;0.70;;
74543;SDS011;63016;55.030;38.710;2023-02-15T01:00:41;4.47;;;0.70;;
74543;SDS011;63016;55.030;38.710;2023-02-15T01:03:08;2.08;;;0.60;;
74543;SDS011;63016;55.030;38.710;2023-02-15T01:05:34;1.90;;;0.73;;
74543;SDS011;63016;55.030;38.710;2023-02-15T01:07:59;1.05;;;0.60;;
74543;SDS011;63016;55.030;38.710;2023-02-15T01:10:25;1.80;;;0.63;;
74543;SDS011;63016;55.030;38.710;2023-02-15T01:12:51;3.40;;;0.82;;
74543;SDS011;63016;55.030;38.710;2023-02-15T01:15:18;1.73;;;1.02;;
74543;SDS011;63016;55.030;38.710;2023-02-15T01:17:44;2.38;;;0.52;;
74543;SDS011;63016;55.030;38.710;2023-02-15T01:20:16;0.47;;;0.40;;
74543;SDS011;63016;55.030;38.710;2023-02-15T01:22:42;2.10;;;0.40;;
74543;SDS011;63016;55.030;38.710;2023-02-15T01:25:07;1.52;;;0.40;;
74543;SDS011;63016;55.030;38.710;2023-02-15T01:27:33;3.20;;;0.38;;
74543;SDS011;63016;55.030;38.710;2023-02-15T01:29:58;2.67;;;0.50;;
74543;SDS011;63016;55.030;38.710;2023-02-15T01:32:24;2.72;;;0.50;;
74543;SDS011;63016;55.030;38.710;2023-02-15T01:34:49;2.35;;;0.40;;
74543;SDS011;63016;55.030;38.710;2023-02-15T01:37:15;1.48;;;0.40;;
74543;SDS011;63016;55.030;38.710;2023-02-15T01:39:40;3.42;;;0.40;;
74543;SDS011;63016;55.030;38.710;2023-02-15T01:42:09;0.68;;;0.20;;
74543;SDS011;63016;55.030;38.710;2023-02-15T01:44:46;2.42;;;0.63;;
74543;SDS011;63016;55.030;38.710;2023-02-15T01:47:36;2.45;;;0.28;;
74543;SDS011;63016;55.030;38.710;2023-02-15T01:50:13;4.10;;;0.60;;
74543;SDS011;63016;55.030;38.710;2023-02-15T01:52:57;1.65;;;0.38;;
74543;SDS011;63016;55.030;38.710;2023-02-15T01:55:27;1.15;;;0.20;;
74543;SDS011;63016;55.030;38.710;2023-02-15T01:57:59;5.03;;;0.50;;
74543;SDS011;63016;55.030;38.710;2023-02-15T02:00:25;3.78;;;0.30;;
74543;SDS011;63016;55.030;38.710;2023-02-15T02:02:53;1.75;;;0.30;;
74543;SDS011;63016;55.030;38.710;2023-02-15T02:05:20;3.13;;;0.60;;
74543;SDS011;63016;55.030;38.710;2023-02-15T02:07:45;2.08;;;0.30;;
74543;SDS011;63016;55.030;38.710;2023-02-15T02:10:15;1.77;;;0.40;;
74543;SDS011;63016;55.030;38.710;2023-02-15T02:12:43;2.88;;;0.57;;
74543;SDS011;63016;55.030;38.710;2023-02-15T02:15:10;2.72;;;0.40;;
74543;SDS011;63016;55.030;38.710;2023-02-15T02:20:35;1.58;;;0.30;;
74543;SDS011;63016;55.030;38.710;2023-02-15T02:23:23;3.15;;;0.40;;
74543;SDS011;63016;55.030;38.710;2023-02-15T02:34:55;4.15;;;0.40;;
74543;SDS011;63016;55.030;38.710;2023-02-15T02:40:42;2.90;;;0.40;;
74543;SDS011;63016;55.030;38.710;2023-02-15T02:46:24;2.17;;;0.40;;
74543;SDS011;63016;55.030;38.710;2023-02-15T02:48:55;5.90;;;0.50;;
74543;SDS011;63016;55.030;38.710;2023-02-15T02:51:21;2.63;;;0.30;;
74543;SDS011;63016;55.030;38.710;2023-02-15T02:53:48;6.60;;;0.60;;
74543;SDS011;63016;55.030;38.710;2023-02-15T02:58:53;1.70;;;0.40;;
74543;SDS011;63016;55.030;38.710;2023-02-15T03:01:51;3.97;;;0.60;;
74543;SDS011;63016;55.030;38.710;2023-02-15T03:04:23;2.08;;;0.70;;
74543;SDS011;63016;55.030;38.710;2023-02-15T03:06:53;1.45;;;0.50;;
74543;SDS011;63016;55.030;38.710;2023-02-15T03:09:39;0.88;;;0.40;;
74543;SDS011;63016;55.030;38.710;2023-02-15T03:12:18;1.92;;;0.88;;
74543;SDS011;63016;55.030;38.710;2023-02-15T03:14:55;1.52;;;0.40;;
74543;SDS011;63016;55.030;38.710;2023-02-15T03:17:26;5.20;;;0.60;;
74543;SDS011;63016;55.030;38.710;2023-02-15T03:19:54;6.57;;;0.68;;
74543;SDS011;63016;55.030;38.710;2023-02-15T03:22:26;1.85;;;1.05;;
74543;SDS011;63016;55.030;38.710;2023-02-15T03:25:11;3.15;;;0.50;;
74543;SDS011;63016;55.030;38.710;2023-02-15T03:27:47;2.10;;;0.50;;
74543;SDS011;63016;55.030;38.710;2023-02-15T03:30:18;6.45;;;0.50;;
74543;SDS011;63016;55.030;38.710;2023-02-15T03:32:47;4.15;;;0.50;;
74543;SDS011;63016;55.030;38.710;2023-02-15T03:35:15;1.10;;;0.60;;
74543;SDS011;63016;55.030;38.710;2023-02-15T03:37:41;5.35;;;0.70;;
74543;SDS011;63016;55.030;38.710;2023-02-15T03:43:13;3.53;;;0.80;;
74543;SDS011;63016;55.030;38.710;2023-02-15T03:45:56;5.78;;;1.08;;
74543;SDS011;63016;55.030;38.710;2023-02-15T03:48:28;4.60;;;0.60;;
74543;SDS011;63016;55.030;38.710;2023-02-15T03:50:59;4.57;;;0.82;;
74543;SDS011;63016;55.030;38.710;2023-02-15T03:53:48;1.88;;;0.50;;
74543;SDS011;63016;55.030;38.710;2023-02-15T03:56:15;4.97;;;0.93;;
74543;SDS011;63016;55.030;38.710;2023-02-15T03:58:41;2.35;;;0.52;;
74543;SDS011;63016;55.030;38.710;2023-02-15T04:01:35;4.97;;;0.60;;
74543;SDS011;63016;55.030;38.710;2023-02-15T04:04:38;3.40;;;0.60;;
74543;SDS011;63016;55.030;38.710;2023-02-15T04:07:08;5.35;;;0.80;;
74543;SDS011;63016;55.030;38.710;2023-02-15T04:09:34;5.00;;;0.90;;
74543;SDS011;63016;55.030;38.710;2023-02-15T04:12:19;2.53;;;0.82;;
74543;SDS011;63016;55.030;38.710;2023-02-15T04:14:44;3.97;;;0.70;;
74543;SDS011;63016;55.030;38.710;2023-02-15T04:17:28;4.50;;;1.20;;
74543;SDS011;63016;55.030;38.710;2023-02-15T04:19:54;2.38;;;0.60;;
74543;SDS011;63016;55.030;38.710;2023-02-15T04:22:38;3.83;;;0.82;;
74543;SDS011;63016;55.030;38.710;2023-02-15T04:25:22;1.15;;;0.50;;
74543;SDS011;63016;55.030;38.710;2023-02-15T04:27:49;2.42;;;0.50;;
74543;SDS011;63016;55.030;38.710;2023-02-15T04:30:16;3.80;;;0.60;;
74543;SDS011;63016;55.030;38.710;2023-02-15T04:32:43;2.00;;;0.40;;
74543;SDS011;63016;55.030;38.710;2023-02-15T04:35:09;3.63;;;0.80;;
74543;SDS011;63016;55.030;38.710;2023-02-15T04:37:36;3.53;;;0.60;;
74543;SDS011;63016;55.030;38.710;2023-02-15T04:40:02;4.05;;;0.73;;
74543;SDS011;63016;55.030;38.710;2023-02-15T04:42:28;2.33;;;0.50;;
74543;SDS011;63016;55.030;38.710;2023-02-15T04:44:54;4.63;;;0.95;;
74543;SDS011;63016;55.030;38.710;2023-02-15T04:47:19;2.13;;;0.60;;
74543;SDS011;63016;55.030;38.710;2023-02-15T04:49:45;3.85;;;0.70;;
74543;SDS011;63016;55.030;38.710;2023-02-15T04:52:11;3.25;;;0.43;;
74543;SDS011;63016;55.030;38.710;2023-02-15T04:54:37;2.80;;;0.65;;
74543;SDS011;63016;55.030;38.710;2023-02-15T04:57:03;2.65;;;0.52;;
74543;SDS011;63016;55.030;38.710;2023-02-15T04:59:29;2.70;;;0.88;;
74543;SDS011;63016;55.030;38.710;2023-02-15T05:01:54;4.15;;;0.55;;
74543;SDS011;63016;55.030;38.710;2023-02-15T05:04:20;2.08;;;0.60;;
74543;SDS011;63016;55.030;38.710;2023-02-15T05:06:45;4.78;;;0.70;;
74543;SDS011;63016;55.030;38.710;2023-02-15T05:09:11;3.20;;;0.65;;
74543;SDS011;63016;55.030;38.710;2023-02-15T05:11:37;3.63;;;0.60;;
74543;SDS011;63016;55.030;38.710;2023-02-15T05:14:03;5.68;;;0.73;;
74543;SDS011;63016;55.030;38.710;2023-02-15T05:16:29;3.85;;;0.90;;
74543;SDS011;63016;55.030;38.710;2023-02-15T05:18:54;3.70;;;0.52;;
74543;SDS011;63016;55.030;38.710;2023-02-15T05:21:20;5.07;;;0.60;;
74543;SDS011;63016;55.030;38.710;2023-02-15T05:23:45;3.95;;;0.60;;
74543;SDS011;63016;55.030;38.710;2023-02-15T05:26:11;5.95;;;0.63;;
74543;SDS011;63016;55.030;38.710;2023-02-15T05:28:56;3.63;;;0.60;;
74543;SDS011;63016;55.030;38.710;2023-02-15T05:31:22;10.95;;;1.30;;
74543;SDS011;63016;55.030;38.710;2023-02-15T05:33:47;4.80;;;1.05;;
74543;SDS011;63016;55.030;38.710;2023-02-15T05:36:13;3.78;;;0.60;;
74543;SDS011;63016;55.030;38.710;2023-02-15T05:38:39;4.90;;;0.68;;
74543;SDS011;63016;55.030;38.710;2023-02-15T05:41:08;3.63;;;0.70;;
74543;SDS011;63016;55.030;38.710;2023-02-15T05:43:34;2.83;;;0.47;;
74543;SDS011;63016;55.030;38.710;2023-02-15T05:46:00;4.75;;;0.60;;
74543;SDS011;63016;55.030;38.710;2023-02-15T05:48:26;4.78;;;0.70;;
74543;SDS011;63016;55.030;38.710;2023-02-15T05:51:02;5.32;;;0.75;;
74543;SDS011;63016;55.030;38.710;2023-02-15T05:53:31;5.03;;;0.60;;
74543;SDS011;63016;55.030;38.710;2023-02-15T05:55:58;2.45;;;0.90;;
74543;SDS011;63016;55.030;38.710;2023-02-15T05:58:28;2.67;;;0.47;;
74543;SDS011;63016;55.030;38.710;2023-02-15T06:00:56;2.78;;;0.80;;
74543;SDS011;63016;55.030;38.710;2023-02-15T06:03:22;5.53;;;0.80;;
74543;SDS011;63016;55.030;38.710;2023-02-15T06:05:48;1.88;;;0.55;;
74543;SDS011;63016;55.030;38.710;2023-02-15T06:08:14;4.10;;;0.57;;
74543;SDS011;63016;55.030;38.710;2023-02-15T06:10:40;5.13;;;0.80;;
74543;SDS011;63016;55.030;38.710;2023-02-15T06:13:06;5.97;;;1.67;;
74543;SDS011;63016;55.030;38.710;2023-02-15T06:15:31;2.20;;;0.60;;
74543;SDS011;63016;55.030;38.710;2023-02-15T06:17:57;3.75;;;1.05;;
74543;SDS011;63016;55.030;38.710;2023-02-15T06:20:23;2.78;;;0.60;;
74543;SDS011;63016;55.030;38.710;2023-02-15T06:22:48;3.92;;;0.57;;
74543;SDS011;63016;55.030;38.710;2023-02-15T06:25:14;1.98;;;0.60;;
74543;SDS011;63016;55.030;38.710;2023-02-15T06:27:42;3.65;;;0.70;;
74543;SDS011;63016;55.030;38.710;2023-02-15T06:30:08;5.15;;;0.60;;
74543;SDS011;63016;55.030;38.710;2023-02-15T06:32:35;2.78;;;0.95;;
74543;SDS011;63016;55.030;38.710;2023-02-15T06:35:01;2.22;;;0.70;;
74543;SDS011;63016;55.030;38.710;2023-02-15T06:37:26;4.72;;;0.80;;
74543;SDS011;63016;55.030;38.710;2023-02-15T06:39:52;3.30;;;0.85;;
74543;SDS011;63016;55.030;38.710;2023-02-15T06:42:17;2.33;;;0.70;;
74543;SDS011;63016;55.030;38.710;2023-02-15T06:44:44;6.30;;;0.70;;
74543;SDS011;63016;55.030;38.710;2023-02-15T06:47:10;4.10;;;0.95;;
74543;SDS011;63016;55.030;38.710;2023-02-15T06:49:36;4.28;;;0.70;;
74543;SDS011;63016;55.030;38.710;2023-02-15T06:52:02;4.80;;;0.85;;
74543;SDS011;63016;55.030;38.710;2023-02-15T06:54:28;4.20;;;0.70;;
74543;SDS011;63016;55.030;38.710;2023-02-15T06:56:53;6.18;;;0.90;;
74543;SDS011;63016;55.030;38.710;2023-02-15T06:59:18;5.30;;;0.90;;
74543;SDS011;63016;55.030;38.710;2023-02-15T07:01:44;4.70;;;0.75;;
74543;SDS011;63016;55.030;38.710;2023-02-15T07:04:09;4.72;;;1.00;;
74543;SDS011;63016;55.030;38.710;2023-02-15T07:06:35;2.83;;;0.90;;
74543;SDS011;63016;55.030;38.710;2023-02-15T07:09:01;2.90;;;0.60;;
74543;SDS011;63016;55.030;38.710;2023-02-15T07:11:27;2.47;;;1.00;;
74543;SDS011;63016;55.030;38.710;2023-02-15T07:14:10;4.95;;;1.58;;
74543;SDS011;63016;55.030;38.710;2023-02-15T07:16:36;2.97;;;1.02;;
74543;SDS011;63016;55.030;38.710;2023-02-15T07:19:01;4.43;;;0.90;;
74543;SDS011;63016;55.030;38.710;2023-02-15T07:21:27;4.07;;;0.85;;
74543;SDS011;63016;55.030;38.710;2023-02-15T07:23:56;5.88;;;1.10;;
74543;SDS011;63016;55.030;38.710;2023-02-15T07:26:22;11.38;;;1.10;;
74543;SDS011;63016;55.030;38.710;2023-02-15T07:28:48;7.55;;;1.52;;
74543;SDS011;63016;55.030;38.710;2023-02-15T07:31:14;6.32;;;0.90;;
74543;SDS011;63016;55.030;38.710;2023-02-15T07:33:40;6.32;;;1.60;;
74543;SDS011;63016;55.030;38.710;2023-02-15T07:36:05;4.60;;;1.17;;
74543;SDS011;63016;55.030;38.710;2023-02-15T07:38:33;4.97;;;0.93;;
74543;SDS011;63016;55.030;38.710;2023-02-15T07:41:04;1.88;;;0.80;;
74543;SDS011;63016;55.030;38.710;2023-02-15T07:43:32;6.22;;;1.00;;
74543;SDS011;63016;55.030;38.710;2023-02-15T07:46:05;5.18;;;1.00;;
74543;SDS011;63016;55.030;38.710;2023-02-15T07:48:37;6.10;;;1.05;;
74543;SDS011;63016;55.030;38.710;2023-02-15T07:51:04;2.88;;;1.02;;
74543;SDS011;63016;55.030;38.710;2023-02-15T07:53:31;3.63;;;1.00;;
74543;SDS011;63016;55.030;38.710;2023-02-15T07:56:00;4.72;;;1.30;;
74543;SDS011;63016;55.030;38.710;2023-02-15T07:58:27;4.63;;;1.05;;
74543;SDS011;63016;55.030;38.710;2023-02-15T08:01:13;5.55;;;0.80;;
74543;SDS011;63016;55.030;38.710;2023-02-15T08:03:39;4.78;;;0.90;;
74543;SDS011;63016;55.030;38.710;2023-02-15T08:06:05;6.00;;;1.10;;
74543;SDS011;63016;55.030;38.710;2023-02-15T08:08:30;4.32;;;0.90;;
74543;SDS011;63016;55.030;38.710;2023-02-15T08:14:16;9.23;;;2.28;;
74543;SDS011;63016;55.030;38.710;2023-02-15T08:19:13;11.98;;;2.95;;
74543;SDS011;63016;55.030;38.710;2023-02-15T08:21:42;9.82;;;1.98;;
74543;SDS011;63016;55.030;38.710;2023-02-15T08:24:11;10.32;;;2.75;;
74543;SDS011;63016;55.030;38.710;2023-02-15T08:26:38;11.52;;;2.88;;
74543;SDS011;63016;55.030;38.710;2023-02-15T08:29:05;13.30;;;2.50;;
74543;SDS011;63016;55.030;38.710;2023-02-15T08:31:32;7.47;;;1.98;;
74543;SDS011;63016;55.030;38.710;2023-02-15T08:33:58;6.93;;;2.30;;
74543;SDS011;63016;55.030;38.710;2023-02-15T08:36:24;5.28;;;1.75;;
74543;SDS011;63016;55.030;38.710;2023-02-15T08:38:54;5.10;;;1.60;;
74543;SDS011;63016;55.030;38.710;2023-02-15T08:41:26;8.27;;;1.50;;
74543;SDS011;63016;55.030;38.710;2023-02-15T08:43:57;4.97;;;1.45;;
74543;SDS011;63016;55.030;38.710;2023-02-15T08:46:26;4.65;;;1.60;;
74543;SDS011;63016;55.030;38.710;2023-02-15T08:48:53;9.55;;;1.90;;
74543;SDS011;63016;55.030;38.710;2023-02-15T08:51:26;7.00;;;1.90;;
74543;SDS011;63016;55.030;38.710;2023-02-15T08:53:56;5.95;;;1.30;;
74543;SDS011;63016;55.030;38.710;2023-02-15T08:56:24;3.47;;;1.33;;
74543;SDS011;63016;55.030;38.710;2023-02-15T08:58:55;2.63;;;1.17;;
74543;SDS011;63016;55.030;38.710;2023-02-15T09:01:25;5.38;;;1.38;;
74543;SDS011;63016;55.030;38.710;2023-02-15T09:03:55;4.28;;;1.42;;
74543;SDS011;63016;55.030;38.710;2023-02-15T09:06:26;3.70;;;1.92;;
74543;SDS011;63016;55.030;38.710;2023-02-15T09:08:52;2.85;;;1.00;;
74543;SDS011;63016;55.030;38.710;2023-02-15T09:11:20;2.88;;;1.00;;
74543;SDS011;63016;55.030;38.710;2023-02-15T09:13:49;5.57;;;0.90;;
74543;SDS011;63016;55.030;38.710;2023-02-15T09:16:17;3.13;;;1.27;;
74543;SDS011;63016;55.030;38.710;2023-02-15T09:18:46;5.00;;;1.17;;
74543;SDS011;63016;55.030;38.710;2023-02-15T09:21:12;3.67;;;0.93;;
74543;SDS011;63016;55.030;38.710;2023-02-15T09:23:40;4.68;;;1.00;;
74543;SDS011;63016;55.030;38.710;2023-02-15T09:26:07;3.08;;;0.98;;
74543;SDS011;63016;55.030;38.710;2023-02-15T09:28:35;2.55;;;0.90;;
74543;SDS011;63016;55.030;38.710;2023-02-15T09:31:19;4.15;;;1.20;;
74543;SDS011;63016;55.030;38.710;2023-02-15T09:33:47;4.40;;;1.00;;
74543;SDS011;63016;55.030;38.710;2023-02-15T09:36:17;7.30;;;0.95;;
74543;SDS011;63016;55.030;38.710;2023-02-15T09:38:46;2.72;;;0.90;;
74543;SDS011;63016;55.030;38.710;2023-02-15T09:52:44;4.40;;;1.60;;
74543;SDS011;63016;55.030;38.710;2023-02-15T09:58:07;8.70;;;1.88;;
74543;SDS011;63016;55.030;38.710;2023-02-15T10:03:53;8.45;;;2.00;;
74543;SDS011;63016;55.030;38.710;2023-02-15T10:27:59;4.47;;;1.88;;
74543;SDS011;63016;55.030;38.710;2023-02-15T10:52:27;2.42;;;1.10;;
74543;SDS011;63016;55.030;38.710;2023-02-15T10:58:57;5.78;;;1.42;;
74543;SDS011;63016;55.030;38.710;2023-02-15T11:01:40;2.80;;;1.20;;
74543;SDS011;63016;55.030;38.710;2023-02-15T11:06:59;2.50;;;1.10;;
74543;SDS011;63016;55.030;38.710;2023-02-15T11:09:33;4.25;;;1.33;;
74543;SDS011;63016;55.030;38.710;2023-02-15T11:12:08;4.70;;;1.20;;
74543;SDS011;63016;55.030;38.710;2023-02-15T11:14:42;4.35;;;1.40;;
74543;SDS011;63016;55.030;38.710;2023-02-15T11:17:16;5.30;;;1.38;;
74543;SDS011;63016;55.030;38.710;2023-02-15T11:19:58;5.28;;;1.63;;
74543;SDS011;63016;55.030;38.710;2023-02-15T11:22:33;3.53;;;1.48;;
74543;SDS011;63016;55.030;38.710;2023-02-15T11:24:59;5.75;;;1.63;;
74543;SDS011;63016;55.030;38.710;2023-02-15T11:27:30;3.28;;;1.50;;
74543;SDS011;63016;55.030;38.710;2023-02-15T11:30:10;4.90;;;1.30;;
74543;SDS011;63016;55.030;38.710;2023-02-15T11:40:28;3.10;;;1.17;;
74543;SDS011;63016;55.030;38.710;2023-02-15T11:43:11;4.68;;;1.50;;
74543;SDS011;63016;55.030;38.710;2023-02-15T11:45:44;8.05;;;1.33;;
74543;SDS011;63016;55.030;38.710;2023-02-15T11:48:11;4.40;;;1.30;;
74543;SDS011;63016;55.030;38.710;2023-02-15T11:50:38;3.40;;;1.38;;
74543;SDS011;63016;55.030;38.710;2023-02-15T11:53:12;3.33;;;1.25;;
74543;SDS011;63016;55.030;38.710;2023-02-15T11:55:42;4.47;;;1.70;;
74543;SDS011;63016;55.030;38.710;2023-02-15T12:00:51;5.53;;;1.73;;
74543;SDS011;63016;55.030;38.710;2023-02-15T12:06:13;3.13;;;1.50;;
74543;SDS011;63016;55.030;38.710;2023-02-15T12:09:03;5.55;;;1.40;;
74543;SDS011;63016;55.030;38.710;2023-02-15T12:11:39;3.70;;;1.45;;
74543;SDS011;63016;55.030;38.710;2023-02-15T12:14:09;5.35;;;1.55;;
74543;SDS011;63016;55.030;38.710;2023-02-15T12:21:48;5.22;;;1.52;;
74543;SDS011;63016;55.030;38.710;2023-02-15T12:24:36;5.95;;;1.40;;
74543;SDS011;63016;55.030;38.710;2023-02-15T12:29:52;8.52;;;1.30;;
74543;SDS011;63016;55.030;38.710;2023-02-15T12:34:54;4.10;;;1.25;;
74543;SDS011;63016;55.030;38.710;2023-02-15T12:37:26;2.45;;;1.00;;
74543;SDS011;63016;55.030;38.710;2023-02-15T12:39:58;4.30;;;1.50;;
74543;SDS011;63016;55.030;38.710;2023-02-15T12:42:25;4.47;;;1.42;;
74543;SDS011;63016;55.030;38.710;2023-02-15T12:45:01;2.85;;;1.35;;
74543;SDS011;63016;55.030;38.710;2023-02-15T12:47:46;8.65;;;1.40;;
74543;SDS011;63016;55.030;38.710;2023-02-15T12:50:32;3.47;;;1.20;;
74543;SDS011;63016;55.030;38.710;2023-02-15T12:55:54;2.90;;;0.98;;
74543;SDS011;63016;55.030;38.710;2023-02-15T12:58:23;3.10;;;1.00;;
74543;SDS011;63016;55.030;38.710;2023-02-15T13:06:23;3.15;;;1.15;;
74543;SDS011;63016;55.030;38.710;2023-02-15T13:08:50;3.40;;;1.60;;
74543;SDS011;63016;55.030;38.710;2023-02-15T13:11:35;3.15;;;1.30;;
74543;SDS011;63016;55.030;38.710;2023-02-15T13:14:15;3.60;;;1.60;;
74543;SDS011;63016;55.030;38.710;2023-02-15T13:16:44;4.47;;;1.40;;
74543;SDS011;63016;55.030;38.710;2023-02-15T13:19:16;2.80;;;1.20;;
74543;SDS011;63016;55.030;38.710;2023-02-15T13:21:52;6.63;;;1.67;;
74543;SDS011;63016;55.030;38.710;2023-02-15T13:24:29;3.60;;;1.38;;
74543;SDS011;63016;55.030;38.710;2023-02-15T13:27:00;2.95;;;1.25;;
74543;SDS011;63016;55.030;38.710;2023-02-15T13:29:28;5.68;;;1.25;;
74543;SDS011;63016;55.030;38.710;2023-02-15T13:32:03;4.35;;;1.05;;
74543;SDS011;63016;55.030;38.710;2023-02-15T13:34:40;3.22;;;1.17;;
74543;SDS011;63016;55.030;38.710;2023-02-15T13:37:32;1.30;;;0.90;;
74543;SDS011;63016;55.030;38.710;2023-02-15T13:40:15;1.50;;;0.73;;
74543;SDS011;63016;55.030;38.710;2023-02-15T13:42:47;1.85;;;0.70;;
74543;SDS011;63016;55.030;38.710;2023-02-15T13:45:29;1.85;;;0.60;;
74543;SDS011;63016;55.030;38.710;2023-02-15T13:48:09;4.15;;;0.80;;
74543;SDS011;63016;55.030;38.710;2023-02-15T14:01:58;1.17;;;0.40;;
74543;SDS011;63016;55.030;38.710;2023-02-15T14:18:51;1.33;;;0.40;;
74543;SDS011;63016;55.030;38.710;2023-02-15T14:21:28;1.27;;;0.50;;
74543;SDS011;63016;55.030;38.710;2023-02-15T14:29:25;3.25;;;0.80;;
74543;SDS011;63016;55.030;38.710;2023-02-15T14:32:04;4.68;;;1.00;;
74543;SDS011;63016;55.030;38.710;2023-02-15T14:37:10;2.92;;;1.10;;
74543;SDS011;63016;55.030;38.710;2023-02-15T14:39:44;3.10;;;1.30;;
74543;SDS011;63016;55.030;38.710;2023-02-15T14:42:58;3.85;;;1.25;;
74543;SDS011;63016;55.030;38.710;2023-02-15T14:48:13;4.22;;;1.67;;
74543;SDS011;63016;55.030;38.710;2023-02-15T14:50:47;2.88;;;1.30;;
74543;SDS011;63016;55.030;38.710;2023-02-15T14:53:20;2.17;;;1.00;;
74543;SDS011;63016;55.030;38.710;2023-02-15T15:01:27;2.30;;;1.02;;
74543;SDS011;63016;55.030;38.710;2023-02-15T15:03:57;3.72;;;1.23;;
74543;SDS011;63016;55.030;38.710;2023-02-15T15:06:38;2.95;;;1.25;;
74543;SDS011;63016;55.030;38.710;2023-02-15T15:14:03;3.92;;;1.20;;
74543;SDS011;63016;55.030;38.710;2023-02-15T15:18:57;2.15;;;1.20;;
74543;SDS011;63016;55.030;38.710;2023-02-15T15:37:42;5.05;;;1.42;;
74543;SDS011;63016;55.030;38.710;2023-02-15T15:48:28;1.95;;;0.82;;
74543;SDS011;63016;55.030;38.710;2023-02-15T15:50:57;2.35;;;1.10;;
74543;SDS011;63016;55.030;38.710;2023-02-15T15:53:44;2.25;;;1.08;;
74543;SDS011;63016;55.030;38.710;2023-02-15T15:56:21;4.05;;;1.10;;
74543;SDS011;63016;55.030;38.710;2023-02-15T15:58:52;2.58;;;1.10;;
74543;SDS011;63016;55.030;38.710;2023-02-15T16:01:27;2.92;;;1.20;;
74543;SDS011;63016;55.030;38.710;2023-02-15T16:03:56;4.90;;;1.10;;
74543;SDS011;63016;55.030;38.710;2023-02-15T16:06:33;7.38;;;1.48;;
74543;SDS011;63016;55.030;38.710;2023-02-15T16:11:58;2.03;;;1.30;;
74543;SDS011;63016;55.030;38.710;2023-02-15T16:14:30;2.50;;;1.27;;
74543;SDS011;63016;55.030;38.710;2023-02-15T16:17:00;1.73;;;1.30;;
74543;SDS011;63016;55.030;38.710;2023-02-15T16:19:33;4.07;;;1.05;;
74543;SDS011;63016;55.030;38.710;2023-02-15T16:22:03;2.33;;;1.10;;
74543;SDS011;63016;55.030;38.710;2023-02-15T16:32:55;3.72;;;1.35;;
74543;SDS011;63016;55.030;38.710;2023-02-15T16:35:29;3.13;;;1.30;;
74543;SDS011;63016;55.030;38.710;2023-02-15T16:37:55;2.53;;;1.40;;
74543;SDS011;63016;55.030;38.710;2023-02-15T16:42:49;1.73;;;1.33;;
74543;SDS011;63016;55.030;38.710;2023-02-15T16:45:21;2.53;;;1.30;;
74543;SDS011;63016;55.030;38.710;2023-02-15T16:47:52;4.28;;;1.60;;
74543;SDS011;63016;55.030;38.710;2023-02-15T16:50:21;4.20;;;1.40;;
74543;SDS011;63016;55.030;38.710;2023-02-15T16:52:49;2.33;;;1.13;;
74543;SDS011;63016;55.030;38.710;2023-02-15T16:55:24;2.55;;;1.20;;
74543;SDS011;63016;55.030;38.710;2023-02-15T16:57:51;1.60;;;1.00;;
74543;SDS011;63016;55.030;38.710;2023-02-15T17:00:24;1.60;;;0.88;;
74543;SDS011;63016;55.030;38.710;2023-02-15T17:11:04;2.33;;;1.20;;
74543;SDS011;63016;55.030;38.710;2023-02-15T17:19:09;1.33;;;1.00;;
74543;SDS011;63016;55.030;38.710;2023-02-15T17:21:42;2.22;;;1.00;;
74543;SDS011;63016;55.030;38.710;2023-02-15T17:24:16;2.15;;;1.27;;
74543;SDS011;63016;55.030;38.710;2023-02-15T17:26:52;3.70;;;1.30;;
74543;SDS011;63016;55.030;38.710;2023-02-15T17:32:02;2.22;;;1.17;;
74543;SDS011;63016;55.030;38.710;2023-02-15T17:34:49;1.75;;;1.10;;
74543;SDS011;63016;55.030;38.710;2023-02-15T17:39:59;3.72;;;1.20;;
74543;SDS011;63016;55.030;38.710;2023-02-15T17:42:47;2.58;;;0.90;;
74543;SDS011;63016;55.030;38.710;2023-02-15T17:45:13;2.25;;;1.10;;
74543;SDS011;63016;55.030;38.710;2023-02-15T17:47:39;2.45;;;1.20;;
74543;SDS011;63016;55.030;38.710;2023-02-15T17:50:05;1.60;;;1.08;;
74543;SDS011;63016;55.030;38.710;2023-02-15T17:52:32;2.13;;;1.08;;
74543;SDS011;63016;55.030;38.710;2023-02-15T17:54:59;1.90;;;1.02;;
74543;SDS011;63016;55.030;38.710;2023-02-15T18:00:16;2.97;;;1.30;;
74543;SDS011;63016;55.030;38.710;2023-02-15T18:03:00;2.25;;;1.20;;
74543;SDS011;63016;55.030;38.710;2023-02-15T18:05:45;2.63;;;1.20;;
74543;SDS011;63016;55.030;38.710;2023-02-15T18:08:28;3.35;;;1.10;;
74543;SDS011;63016;55.030;38.710;2023-02-15T18:11:13;1.95;;;1.00;;
74543;SDS011;63016;55.030;38.710;2023-02-15T18:13:57;2.05;;;1.13;;
74543;SDS011;63016;55.030;38.710;2023-02-15T18:16:26;3.33;;;1.10;;
74543;SDS011;63016;55.030;38.710;2023-02-15T18:18:54;3.42;;;1.25;;
74543;SDS011;63016;55.030;38.710;2023-02-15T18:21:22;2.47;;;1.25;;
74543;SDS011;63016;55.030;38.710;2023-02-15T18:23:48;3.70;;;1.38;;
74543;SDS011;63016;55.030;38.710;2023-02-15T18:26:20;2.35;;;1.13;;
74543;SDS011;63016;55.030;38.710;2023-02-15T18:28:48;1.40;;;1.00;;
74543;SDS011;63016;55.030;38.710;2023-02-15T18:31:16;2.20;;;1.08;;
74543;SDS011;63016;55.030;38.710;2023-02-15T18:33:47;2.08;;;1.20;;
74543;SDS011;63016;55.030;38.710;2023-02-15T18:36:21;2.05;;;1.17;;
74543;SDS011;63016;55.030;38.710;2023-02-15T18:38:51;2.30;;;1.38;;
74543;SDS011;63016;55.030;38.710;2023-02-15T18:41:19;2.78;;;1.23;;
74543;SDS011;63016;55.030;38.710;2023-02-15T18:43:46;2.45;;;1.30;;
74543;SDS011;63016;55.030;38.710;2023-02-15T18:46:13;2.35;;;1.52;;
74543;SDS011;63016;55.030;38.710;2023-02-15T18:48:38;2.38;;;1.25;;
74543;SDS011;63016;55.030;38.710;2023-02-15T18:51:04;3.10;;;1.42;;
74543;SDS011;63016;55.030;38.710;2023-02-15T18:53:36;1.90;;;1.20;;